Back to Top

Language: 

My Weather Underground Personal Weather Station Historical Data with Graphs...

Delerius Weather Station Historical Data
Daily Summary for August 22, 2017 Units:  English    Metric   Both
« Previous Day
Next Day »
Daily Weekly Monthly Yearly Custom
  High: Low: Average:
Temperature: 71.1 °F 60.1 °F 65.4 °F
Dew Point: 64.8 °F 58.6 °F 61.9 °F
Humidity: 97 % 78 % 89 %
Wind Speed: 9.0 mph 0.0 mph 3.3 mph
Wind Gust: 15.0 mph - -
Wind:- - SE
Pressure: 30.11 in 29.95 in -
Precipitation: 0.01 in    
Historical Graphs
 
 
Tabular Data for August 22, 2017
Time Temperature Dew Point Pressure Wind Wind Speed Wind Gust Humidity Rainfall Rate (Hourly) solar Conditions
00:04 61.5 °F 59.8 °F 30.11 in Calm     94 % 0.00 in 0 W/m2
00:09 61.3 °F 59.6 °F 30.11 in Calm     94 % 0.00 in 0 W/m2
00:14 61.3 °F 59.6 °F 30.11 in Calm     94 % 0.00 in 0 W/m2
00:19 61.3 °F 59.6 °F 30.11 in Calm     94 % 0.00 in 0 W/m2
00:24 61.3 °F 59.6 °F 30.11 in Calm     94 % 0.00 in 0 W/m2
00:29 61.5 °F 59.8 °F 30.11 in Calm     94 % 0.01 in 0 W/m2
00:34 61.5 °F 59.8 °F 30.11 in Calm   1.0 mph 94 % 0.01 in 0 W/m2
00:39 61.5 °F 60.1 °F 30.11 in Calm   2.0 mph 95 % 0.01 in 0 W/m2
00:44 61.5 °F 60.1 °F 30.11 in Calm   2.0 mph 95 % 0.01 in 0 W/m2
00:49 61.5 °F 60.1 °F 30.11 in Calm   2.0 mph 95 % 0.01 in 0 W/m2
00:54 61.3 °F 59.9 °F 30.11 in Calm   2.0 mph 95 % 0.01 in 0 W/m2
00:59 61.3 °F 59.9 °F 30.11 in Calm   2.0 mph 95 % 0.01 in 0 W/m2
01:00 61.3 °F 59.9 °F 30.11 in Calm   2.0 mph 95 % 0.01 in 0 W/m2
01:05 61.3 °F 59.9 °F 30.11 in Calm   1.0 mph 95 % 0.01 in 0 W/m2
01:10 61.3 °F 59.9 °F 30.11 in Calm   1.0 mph 95 % 0.01 in 0 W/m2
01:15 61.3 °F 59.9 °F 30.11 in Calm   1.0 mph 95 % 0.01 in 0 W/m2
01:20 61.3 °F 59.9 °F 30.11 in Calm   1.0 mph 95 % 0.01 in 0 W/m2
01:25 61.3 °F 59.9 °F 30.11 in Calm   2.0 mph 95 % 0.00 in 0 W/m2
01:30 61.3 °F 59.9 °F 30.11 in Calm   2.0 mph 95 % 0.00 in 0 W/m2
01:35 61.3 °F 59.9 °F 30.11 in Calm   4.0 mph 95 % 0.00 in 0 W/m2
01:40 61.3 °F 59.9 °F 30.11 in Calm   4.0 mph 95 % 0.00 in 0 W/m2
01:45 61.3 °F 59.9 °F 30.11 in Calm     95 % 0.00 in 0 W/m2
01:50 61.3 °F 59.9 °F 30.11 in Calm     95 % 0.00 in 0 W/m2
01:55 61.3 °F 59.9 °F 30.11 in Calm     95 % 0.00 in 0 W/m2
02:00 61.3 °F 59.9 °F 30.11 in Calm     95 % 0.00 in 0 W/m2
02:05 61.2 °F 59.7 °F 30.11 in Calm     95 % 0.00 in 0 W/m2
02:10 61.2 °F 59.7 °F 30.11 in Calm     95 % 0.00 in 0 W/m2
02:15 61.2 °F 59.7 °F 30.11 in Calm     95 % 0.00 in 0 W/m2
02:20 61.0 °F 59.5 °F 30.11 in Calm     95 % 0.00 in 0 W/m2
02:25 61.0 °F 59.5 °F 30.11 in Calm     95 % 0.00 in 0 W/m2
02:30 61.0 °F 59.5 °F 30.11 in Calm     95 % 0.00 in 0 W/m2
02:35 60.8 °F 59.4 °F 30.11 in Calm     95 % 0.00 in 0 W/m2
02:40 60.8 °F 59.4 °F 30.11 in Calm     95 % 0.00 in 0 W/m2
02:45 60.8 °F 59.7 °F 30.11 in Calm   1.0 mph 96 % 0.00 in 0 W/m2
02:51 60.8 °F 59.7 °F 30.11 in Calm   2.0 mph 96 % 0.00 in 0 W/m2
02:56 60.6 °F 59.5 °F 30.10 in Calm   2.0 mph 96 % 0.00 in 0 W/m2
03:01 60.6 °F 59.2 °F 30.10 in Calm   1.0 mph 95 % 0.00 in 0 W/m2
03:06 60.4 °F 59.0 °F 30.10 in Calm     95 % 0.00 in 0 W/m2
03:11 60.4 °F 59.0 °F 30.10 in Calm     95 % 0.00 in 0 W/m2
03:16 60.3 °F 58.8 °F 30.10 in Calm     95 % 0.00 in 0 W/m2
03:21 60.1 °F 58.6 °F 30.10 in Calm     95 % 0.00 in 0 W/m2
03:26 60.1 °F 58.6 °F 30.10 in Calm     95 % 0.00 in 0 W/m2
03:31 60.1 °F 58.9 °F 30.10 in Calm     96 % 0.00 in 0 W/m2
03:36 60.1 °F 58.9 °F 30.10 in Calm     96 % 0.00 in 0 W/m2
03:41 60.1 °F 58.9 °F 30.10 in Calm     96 % 0.00 in 0 W/m2
03:46 60.1 °F 58.9 °F 30.10 in Calm     96 % 0.00 in 0 W/m2
03:51 60.1 °F 58.9 °F 30.10 in Calm   1.0 mph 96 % 0.00 in 0 W/m2
03:56 60.1 °F 58.9 °F 30.10 in Calm   1.0 mph 96 % 0.00 in 0 W/m2
04:01 60.3 °F 59.1 °F 30.09 in Calm     96 % 0.00 in 0 W/m2
04:06 60.3 °F 59.1 °F 30.09 in Calm     96 % 0.00 in 0 W/m2
04:11 60.3 °F 59.1 °F 30.09 in Calm     96 % 0.00 in 0 W/m2
04:17 60.3 °F 59.1 °F 30.09 in Calm     96 % 0.00 in 0 W/m2
04:22 60.3 °F 59.1 °F 30.09 in Calm     96 % 0.00 in 0 W/m2
04:23 60.3 °F 59.1 °F 30.09 in Calm     96 % 0.00 in 0 W/m2
04:24 60.3 °F 59.1 °F 30.09 in Calm     96 % 0.00 in 0 W/m2
04:28 60.3 °F 59.1 °F 30.09 in Calm     96 % 0.00 in 0 W/m2
04:33 60.1 °F 58.9 °F 30.09 in Calm     96 % 0.00 in 0 W/m2
04:38 60.3 °F 59.1 °F 30.09 in Calm     96 % 0.00 in 0 W/m2
04:43 60.3 °F 59.1 °F 30.09 in Calm     96 % 0.00 in 0 W/m2
04:48 60.3 °F 59.1 °F 30.09 in Calm     96 % 0.00 in 0 W/m2
04:53 60.3 °F 59.1 °F 30.09 in Calm     96 % 0.00 in 0 W/m2
04:58 60.3 °F 59.1 °F 30.09 in Calm     96 % 0.00 in 0 W/m2
05:03 60.3 °F 59.1 °F 30.09 in Calm     96 % 0.00 in 0 W/m2
05:08 60.3 °F 59.1 °F 30.09 in Calm     96 % 0.00 in 0 W/m2
05:13 60.1 °F 58.9 °F 30.10 in Calm     96 % 0.00 in 0 W/m2
05:18 60.1 °F 58.9 °F 30.10 in Calm     96 % 0.00 in 0 W/m2
05:23 60.1 °F 58.9 °F 30.09 in Calm     96 % 0.00 in 0 W/m2
05:28 60.1 °F 58.9 °F 30.09 in Calm     96 % 0.00 in 0 W/m2
05:33 60.1 °F 59.2 °F 30.10 in Calm     97 % 0.00 in 0 W/m2
05:38 60.3 °F 59.4 °F 30.09 in Calm     97 % 0.00 in 0 W/m2
05:43 60.3 °F 59.4 °F 30.09 in Calm     97 % 0.00 in 0 W/m2
05:48 60.3 °F 59.4 °F 30.09 in Calm     97 % 0.00 in 0 W/m2
05:53 60.3 °F 59.4 °F 30.09 in Calm     97 % 0.00 in 0 W/m2
05:58 60.3 °F 59.4 °F 30.09 in Calm     97 % 0.00 in 0 W/m2
06:03 60.3 °F 59.4 °F 30.09 in Calm     97 % 0.00 in 0 W/m2
06:08 60.3 °F 59.1 °F 30.09 in Calm     96 % 0.00 in 0 W/m2
06:13 60.3 °F 59.1 °F 30.09 in Calm     96 % 0.00 in 0 W/m2
06:18 60.3 °F 59.1 °F 30.09 in Calm     96 % 0.00 in 0 W/m2
06:23 60.1 °F 59.2 °F 30.10 in Calm     97 % 0.00 in 0 W/m2
06:28 60.1 °F 59.2 °F 30.09 in Calm     97 % 0.00 in 5 W/m2
06:33 60.1 °F 59.2 °F 30.10 in Calm     97 % 0.00 in 7 W/m2
06:38 60.1 °F 59.2 °F 30.10 in Calm     97 % 0.00 in 9 W/m2
06:43 60.3 °F 59.4 °F 30.10 in Calm     97 % 0.00 in 11 W/m2
06:48 60.3 °F 59.4 °F 30.10 in Calm     97 % 0.00 in 12 W/m2
06:53 60.3 °F 59.4 °F 30.10 in Calm     97 % 0.00 in 14 W/m2
06:58 60.3 °F 59.4 °F 30.10 in Calm     97 % 0.00 in 16 W/m2
07:03 60.3 °F 59.4 °F 30.10 in Calm     97 % 0.00 in 18 W/m2
07:08 60.3 °F 59.4 °F 30.10 in Calm     97 % 0.00 in 19 W/m2
07:14 60.3 °F 59.4 °F 30.10 in Calm     97 % 0.00 in 23 W/m2
07:19 60.4 °F 59.6 °F 30.10 in Calm   1.0 mph 97 % 0.00 in 25 W/m2
07:24 60.6 °F 59.8 °F 30.10 in Calm   1.0 mph 97 % 0.00 in 26 W/m2
07:29 60.6 °F 59.8 °F 30.10 in Calm     97 % 0.00 in 28 W/m2
07:34 60.8 °F 59.9 °F 30.10 in Calm     97 % 0.00 in 30 W/m2
07:39 61.0 °F 60.1 °F 30.10 in Calm     97 % 0.00 in 35 W/m2
07:44 61.0 °F 60.1 °F 30.10 in Calm     97 % 0.00 in 40 W/m2
07:49 61.0 °F 60.1 °F 30.10 in Calm     97 % 0.00 in 42 W/m2
07:54 61.2 °F 60.3 °F 30.10 in Calm     97 % 0.00 in 42 W/m2
07:59 61.2 °F 60.3 °F 30.10 in Calm     97 % 0.00 in 40 W/m2
08:04 61.3 °F 60.5 °F 30.10 in Calm     97 % 0.00 in 47 W/m2
08:09 61.3 °F 60.5 °F 30.10 in Calm     97 % 0.00 in 56 W/m2
08:14 61.5 °F 60.7 °F 30.10 in Calm     97 % 0.00 in 76 W/m2
08:19 61.5 °F 60.7 °F 30.10 in Calm     97 % 0.00 in 90 W/m2
08:24 61.7 °F 60.8 °F 30.10 in Calm     97 % 0.00 in 97 W/m2
08:29 61.9 °F 61.0 °F 30.10 in Calm     97 % 0.00 in 107 W/m2
08:34 62.1 °F 61.2 °F 30.10 in Calm   2.0 mph 97 % 0.00 in 111 W/m2
08:39 62.2 °F 61.4 °F 30.10 in Calm   2.0 mph 97 % 0.00 in 111 W/m2
08:44 62.4 °F 61.6 °F 30.10 in Calm     97 % 0.00 in 113 W/m2
08:49 62.6 °F 61.7 °F 30.10 in Calm     97 % 0.00 in 113 W/m2
08:54 62.8 °F 61.9 °F 30.10 in Calm     97 % 0.00 in 123 W/m2
08:59 63.0 °F 62.1 °F 30.10 in Calm     97 % 0.00 in 141 W/m2
09:04 63.0 °F 62.1 °F 30.10 in Calm     97 % 0.00 in 151 W/m2
09:09 63.1 °F 62.3 °F 30.10 in Calm   1.0 mph 97 % 0.00 in 144 W/m2
09:14 63.3 °F 62.5 °F 30.10 in Calm   1.0 mph 97 % 0.00 in 146 W/m2
09:19 63.5 °F 62.6 °F 30.10 in Calm   3.0 mph 97 % 0.00 in 174 W/m2
09:24 63.7 °F 62.5 °F 30.10 in Calm   3.0 mph 96 % 0.00 in 172 W/m2
09:29 63.9 °F 62.7 °F 30.10 in Calm   2.0 mph 96 % 0.00 in 151 W/m2
09:30 63.9 °F 62.7 °F 30.10 in Calm   2.0 mph 96 % 0.00 in 155 W/m2
09:35 64.0 °F 62.9 °F 30.10 in Calm   2.0 mph 96 % 0.00 in 179 W/m2
09:40 64.2 °F 63.1 °F 30.10 in East 1.0 mph 4.0 mph 96 % 0.00 in 204 W/m2
09:45 64.4 °F 63.2 °F 30.10 in East 1.0 mph 4.0 mph 96 % 0.00 in 192 W/m2
09:50 64.6 °F 63.1 °F 30.10 in East 1.0 mph 4.0 mph 95 % 0.00 in 185 W/m2
09:55 64.8 °F 63.3 °F 30.10 in East 1.0 mph 5.0 mph 95 % 0.00 in 183 W/m2
10:00 64.9 °F 63.5 °F 30.10 in SE 2.0 mph 7.0 mph 95 % 0.00 in 174 W/m2
10:05 65.1 °F 63.3 °F 30.10 in SE 2.0 mph 7.0 mph 94 % 0.00 in 190 W/m2
10:10 65.3 °F 63.5 °F 30.10 in SE 2.0 mph 6.0 mph 94 % 0.00 in 183 W/m2
10:15 65.5 °F 63.7 °F 30.10 in SE 3.0 mph 6.0 mph 94 % 0.00 in 169 W/m2
10:20 65.7 °F 63.6 °F 30.10 in SE 4.0 mph 8.0 mph 93 % 0.00 in 220 W/m2
10:25 65.8 °F 63.5 °F 30.10 in SE 5.0 mph 8.0 mph 92 % 0.00 in 272 W/m2
10:31 66.0 °F 63.6 °F 30.10 in SE 5.0 mph 8.0 mph 92 % 0.00 in 230 W/m2
10:32 66.0 °F 63.6 °F 30.10 in SE 5.0 mph 8.0 mph 92 % 0.00 in 237 W/m2
10:37 66.4 °F 63.7 °F 30.10 in SE 3.0 mph 8.0 mph 91 % 0.00 in 232 W/m2
10:42 66.6 °F 63.9 °F 30.10 in SSE 2.0 mph 6.0 mph 91 % 0.00 in 290 W/m2
10:47 66.7 °F 63.7 °F 30.09 in SE 4.0 mph 8.0 mph 90 % 0.00 in 200 W/m2
10:52 66.9 °F 63.9 °F 30.09 in SE 5.0 mph 9.0 mph 90 % 0.00 in 193 W/m2
10:57 66.9 °F 63.6 °F 30.09 in SSE 5.0 mph 9.0 mph 89 % 0.00 in 234 W/m2
11:02 67.1 °F 63.7 °F 30.09 in SSE 4.0 mph 7.0 mph 89 % 0.00 in 246 W/m2
11:07 67.3 °F 63.9 °F 30.09 in SSE 4.0 mph 8.0 mph 89 % 0.00 in 232 W/m2
11:12 67.5 °F 63.8 °F 30.09 in SSE 6.0 mph 11.0 mph 88 % 0.00 in 288 W/m2
11:17 67.6 °F 63.6 °F 30.09 in SE 7.0 mph 12.0 mph 87 % 0.00 in 438 W/m2
11:22 68.0 °F 64.0 °F 30.09 in SSE 8.0 mph 12.0 mph 87 % 0.00 in 533 W/m2
11:27 68.4 °F 64.0 °F 30.09 in SE 8.0 mph 12.0 mph 86 % 0.00 in 438 W/m2
11:32 68.5 °F 63.8 °F 30.09 in SE 8.0 mph 13.0 mph 85 % 0.00 in 563 W/m2
11:37 68.7 °F 64.0 °F 30.09 in SE 7.0 mph 13.0 mph 85 % 0.00 in 257 W/m2
11:42 68.7 °F 64.0 °F 30.09 in SE 7.0 mph 13.0 mph 85 % 0.00 in 287 W/m2
11:47 68.7 °F 64.0 °F 30.09 in SE 8.0 mph 13.0 mph 85 % 0.00 in 346 W/m2
11:52 68.7 °F 64.0 °F 30.09 in SE 7.0 mph 12.0 mph 85 % 0.00 in 264 W/m2
11:57 68.7 °F 64.0 °F 30.09 in SE 7.0 mph 12.0 mph 85 % 0.00 in 329 W/m2
12:02 68.7 °F 64.0 °F 30.09 in SE 7.0 mph 10.0 mph 85 % 0.00 in 290 W/m2
12:07 68.9 °F 64.2 °F 30.08 in SE 7.0 mph 11.0 mph 85 % 0.00 in 378 W/m2
12:12 69.1 °F 64.4 °F 30.08 in SE 6.0 mph 11.0 mph 85 % 0.00 in 269 W/m2
12:17 69.4 °F 64.7 °F 30.08 in SE 5.0 mph 8.0 mph 85 % 0.00 in 239 W/m2
12:22 69.6 °F 64.2 °F 30.08 in SE 5.0 mph 11.0 mph 83 % 0.00 in 271 W/m2
12:27 69.4 °F 64.0 °F 30.08 in SE 6.0 mph 11.0 mph 83 % 0.00 in 192 W/m2
12:32 69.3 °F 63.9 °F 30.08 in SSE 6.0 mph 11.0 mph 83 % 0.00 in 172 W/m2
12:37 69.3 °F 63.9 °F 30.08 in SSE 6.0 mph 10.0 mph 83 % 0.00 in 206 W/m2
12:42 69.1 °F 63.7 °F 30.08 in SSE 6.0 mph 10.0 mph 83 % 0.00 in 315 W/m2
12:47 69.3 °F 64.2 °F 30.08 in SSE 6.0 mph 10.0 mph 84 % 0.00 in 276 W/m2
12:52 69.4 °F 64.4 °F 30.07 in SSE 5.0 mph 10.0 mph 84 % 0.00 in 350 W/m2
12:57 69.8 °F 64.4 °F 30.07 in SE 6.0 mph 11.0 mph 83 % 0.00 in 318 W/m2
13:02 70.0 °F 64.2 °F 30.07 in SE 7.0 mph 11.0 mph 82 % 0.00 in 413 W/m2
13:07 70.2 °F 64.1 °F 30.07 in SSE 6.0 mph 12.0 mph 81 % 0.00 in 148 W/m2
13:12 70.0 °F 63.9 °F 30.07 in SSE 6.0 mph 12.0 mph 81 % 0.00 in 163 W/m2
13:17 70.0 °F 63.9 °F 30.07 in SSE 5.0 mph 10.0 mph 81 % 0.00 in 243 W/m2
13:22 70.0 °F 64.2 °F 30.07 in South 6.0 mph 10.0 mph 82 % 0.00 in 171 W/m2
13:27 70.0 °F 64.2 °F 30.07 in South 6.0 mph 11.0 mph 82 % 0.00 in 230 W/m2
13:32 70.0 °F 64.2 °F 30.06 in South 5.0 mph 11.0 mph 82 % 0.00 in 287 W/m2
13:37 70.2 °F 64.4 °F 30.06 in South 5.0 mph 9.0 mph 82 % 0.00 in 374 W/m2
13:43 70.5 °F 64.4 °F 30.06 in SSE 6.0 mph 10.0 mph 81 % 0.00 in 265 W/m2
13:48 70.5 °F 64.0 °F 30.06 in South 7.0 mph 14.0 mph 80 % 0.00 in 327 W/m2
13:53 70.5 °F 64.0 °F 30.06 in SSE 8.0 mph 14.0 mph 80 % 0.00 in 469 W/m2
13:58 70.9 °F 64.8 °F 30.06 in SSE 8.0 mph 12.0 mph 81 % 0.00 in 269 W/m2
14:03 70.9 °F 64.4 °F 30.06 in SSE 7.0 mph 10.0 mph 80 % 0.00 in 197 W/m2
14:08 70.9 °F 64.4 °F 30.06 in SSE 6.0 mph 10.0 mph 80 % 0.00 in 123 W/m2
14:13 70.5 °F 64.4 °F 30.06 in SSE 5.0 mph 9.0 mph 81 % 0.00 in 204 W/m2
14:18 70.5 °F 64.4 °F 30.06 in SSE 5.0 mph 10.0 mph 81 % 0.00 in 204 W/m2
14:23 70.3 °F 63.9 °F 30.05 in SE 5.0 mph 10.0 mph 80 % 0.00 in 244 W/m2
14:28 70.5 °F 64.0 °F 30.05 in SSE 6.0 mph 10.0 mph 80 % 0.00 in 188 W/m2
14:33 70.3 °F 63.9 °F 30.05 in SSE 7.0 mph 11.0 mph 80 % 0.00 in 186 W/m2
14:38 70.3 °F 63.9 °F 30.05 in SSE 7.0 mph 11.0 mph 80 % 0.00 in 211 W/m2
14:43 70.3 °F 63.9 °F 30.05 in SSE 6.0 mph 10.0 mph 80 % 0.00 in 207 W/m2
14:48 70.5 °F 64.4 °F 30.05 in SSE 5.0 mph 9.0 mph 81 % 0.00 in 229 W/m2
14:53 70.5 °F 64.0 °F 30.04 in SSE 4.0 mph 9.0 mph 80 % 0.00 in 385 W/m2
14:58 70.9 °F 64.0 °F 30.04 in SSE 5.0 mph 8.0 mph 79 % 0.00 in 306 W/m2
15:03 71.1 °F 63.9 °F 30.04 in SSE 6.0 mph 10.0 mph 78 % 0.00 in 162 W/m2
15:08 70.9 °F 63.7 °F 30.04 in SSE 7.0 mph 12.0 mph 78 % 0.00 in 125 W/m2
15:13 70.9 °F 63.7 °F 30.04 in SE 8.0 mph 12.0 mph 78 % 0.00 in 105 W/m2
15:18 70.7 °F 63.9 °F 30.03 in SE 7.0 mph 12.0 mph 79 % 0.00 in 188 W/m2
15:23 70.7 °F 64.2 °F 30.03 in ESE 7.0 mph 12.0 mph 80 % 0.00 in 186 W/m2
15:28 70.7 °F 63.9 °F 30.03 in SE 7.0 mph 15.0 mph 79 % 0.00 in 171 W/m2
15:33 70.7 °F 63.9 °F 30.03 in SE 7.0 mph 15.0 mph 79 % 0.00 in 174 W/m2
15:38 70.7 °F 64.2 °F 30.03 in SE 6.0 mph 12.0 mph 80 % 0.00 in 165 W/m2
15:43 70.7 °F 64.2 °F 30.03 in SE 7.0 mph 11.0 mph 80 % 0.00 in 227 W/m2
15:48 70.7 °F 64.2 °F 30.02 in ESE 7.0 mph 11.0 mph 80 % 0.00 in 221 W/m2
15:53 70.9 °F 64.4 °F 30.02 in SE 7.0 mph 12.0 mph 80 % 0.00 in 155 W/m2
15:58 70.7 °F 63.9 °F 30.02 in SE 7.0 mph 12.0 mph 79 % 0.00 in 121 W/m2
16:03 70.7 °F 64.2 °F 30.02 in ESE 7.0 mph 11.0 mph 80 % 0.00 in 188 W/m2
16:08 70.7 °F 64.2 °F 30.02 in SE 7.0 mph 12.0 mph 80 % 0.00 in 188 W/m2
16:13 70.7 °F 64.2 °F 30.02 in SE 7.0 mph 13.0 mph 80 % 0.00 in 151 W/m2
16:18 70.7 °F 64.2 °F 30.02 in SE 8.0 mph 14.0 mph 80 % 0.00 in 156 W/m2
16:23 70.3 °F 63.5 °F 30.02 in SE 9.0 mph 14.0 mph 79 % 0.00 in 142 W/m2
16:28 70.2 °F 63.7 °F 30.02 in SE 9.0 mph 14.0 mph 80 % 0.00 in 135 W/m2
16:33 70.0 °F 63.9 °F 30.02 in SSE 9.0 mph 13.0 mph 81 % 0.00 in 79 W/m2
16:38 70.0 °F 63.9 °F 30.02 in SSE 8.0 mph 12.0 mph 81 % 0.00 in 109 W/m2
16:43 69.8 °F 64.1 °F 30.01 in SSE 8.0 mph 13.0 mph 82 % 0.00 in 151 W/m2
16:48 69.6 °F 63.9 °F 30.01 in SE 8.0 mph 13.0 mph 82 % 0.00 in 77 W/m2
16:53 69.6 °F 63.9 °F 30.01 in SE 7.0 mph 11.0 mph 82 % 0.00 in 58 W/m2
16:58 69.6 °F 63.9 °F 30.01 in SE 6.0 mph 11.0 mph 82 % 0.00 in 76 W/m2
17:00 69.6 °F 64.2 °F 30.01 in SE 5.0 mph 10.0 mph 83 % 0.00 in 69 W/m2
17:05 69.6 °F 64.2 °F 30.01 in SE 5.0 mph 10.0 mph 83 % 0.00 in 95 W/m2
17:10 69.6 °F 64.2 °F 30.01 in SE 6.0 mph 10.0 mph 83 % 0.00 in 95 W/m2
17:15 69.4 °F 63.7 °F 30.01 in SE 7.0 mph 11.0 mph 82 % 0.00 in 95 W/m2
17:20 69.4 °F 63.7 °F 30.01 in SE 7.0 mph 11.0 mph 82 % 0.00 in 93 W/m2
17:25 69.6 °F 63.9 °F 30.01 in SE 6.0 mph 11.0 mph 82 % 0.00 in 70 W/m2
17:30 69.6 °F 63.9 °F 30.01 in SE 6.0 mph 10.0 mph 82 % 0.00 in 74 W/m2
17:35 69.6 °F 63.9 °F 30.01 in SE 6.0 mph 10.0 mph 82 % 0.00 in 63 W/m2
17:40 69.4 °F 63.7 °F 30.01 in SE 6.0 mph 10.0 mph 82 % 0.00 in 46 W/m2
17:45 69.4 °F 63.7 °F 30.01 in SE 6.0 mph 11.0 mph 82 % 0.00 in 42 W/m2
17:50 69.4 °F 64.0 °F 30.01 in SE 4.0 mph 11.0 mph 83 % 0.00 in 47 W/m2
17:55 69.6 °F 64.2 °F 30.00 in SE 3.0 mph 8.0 mph 83 % 0.00 in 53 W/m2
18:00 69.6 °F 64.2 °F 30.00 in SE 4.0 mph 8.0 mph 83 % 0.00 in 44 W/m2
18:05 69.4 °F 63.7 °F 30.00 in SE 5.0 mph 10.0 mph 82 % 0.00 in 47 W/m2
18:10 69.4 °F 63.7 °F 30.00 in SE 6.0 mph 10.0 mph 82 % 0.00 in 62 W/m2
18:15 69.4 °F 63.7 °F 30.00 in SE 5.0 mph 10.0 mph 82 % 0.00 in 63 W/m2
18:20 69.4 °F 63.7 °F 30.00 in SE 4.0 mph 9.0 mph 82 % 0.00 in 84 W/m2
18:25 69.6 °F 63.9 °F 29.99 in SE 5.0 mph 9.0 mph 82 % 0.00 in 109 W/m2
18:30 69.6 °F 63.9 °F 29.99 in SE 5.0 mph 8.0 mph 82 % 0.00 in 107 W/m2
18:35 69.6 °F 63.9 °F 29.99 in SE 4.0 mph 8.0 mph 82 % 0.00 in 120 W/m2
18:41 69.8 °F 64.1 °F 29.99 in SE 4.0 mph 8.0 mph 82 % 0.00 in 127 W/m2
18:45 70.0 °F 64.2 °F 29.99 in SE 4.0 mph 8.0 mph 82 % 0.00 in 97 W/m2
18:50 70.0 °F 64.2 °F 29.99 in SE 4.0 mph 8.0 mph 82 % 0.00 in 107 W/m2
18:55 70.0 °F 64.2 °F 29.99 in SE 5.0 mph 8.0 mph 82 % 0.00 in 88 W/m2
19:00 70.0 °F 64.2 °F 29.99 in SE 4.0 mph 8.0 mph 82 % 0.00 in 76 W/m2
19:06 70.0 °F 64.2 °F 29.99 in ESE 3.0 mph 8.0 mph 82 % 0.00 in 60 W/m2
19:11 69.8 °F 64.1 °F 29.99 in ESE 4.0 mph 7.0 mph 82 % 0.00 in 56 W/m2
19:16 69.8 °F 64.1 °F 29.99 in SE 4.0 mph 8.0 mph 82 % 0.00 in 62 W/m2
19:21 69.6 °F 63.9 °F 29.99 in SE 4.0 mph 8.0 mph 82 % 0.00 in 40 W/m2
19:26 69.6 °F 63.9 °F 29.98 in ESE 5.0 mph 8.0 mph 82 % 0.00 in 40 W/m2
19:31 69.4 °F 63.7 °F 29.98 in ESE 4.0 mph 8.0 mph 82 % 0.00 in 40 W/m2
19:36 69.4 °F 63.7 °F 29.99 in ESE 4.0 mph 8.0 mph 82 % 0.00 in 28 W/m2
19:41 69.4 °F 63.7 °F 29.99 in ESE 5.0 mph 10.0 mph 82 % 0.00 in 21 W/m2
19:46 69.3 °F 63.5 °F 29.99 in SE 5.0 mph 10.0 mph 82 % 0.00 in 12 W/m2
19:51 69.1 °F 63.4 °F 29.99 in SE 5.0 mph 8.0 mph 82 % 0.00 in 7 W/m2
19:56 69.1 °F 63.7 °F 29.99 in ESE 4.0 mph 7.0 mph 83 % 0.00 in 5 W/m2
20:01 68.9 °F 63.2 °F 29.98 in ESE 4.0 mph 9.0 mph 82 % 0.00 in 0 W/m2
20:06 68.7 °F 63.3 °F 29.98 in ESE 5.0 mph 11.0 mph 83 % 0.00 in 0 W/m2
20:11 68.7 °F 63.3 °F 29.98 in ESE 6.0 mph 11.0 mph 83 % 0.00 in 0 W/m2
20:16 68.5 °F 63.2 °F 29.98 in ESE 5.0 mph 9.0 mph 83 % 0.00 in 0 W/m2
20:21 68.4 °F 63.0 °F 29.98 in ESE 5.0 mph 9.0 mph 83 % 0.00 in 0 W/m2
20:26 68.4 °F 63.0 °F 29.98 in ESE 5.0 mph 10.0 mph 83 % 0.00 in 0 W/m2
20:31 68.2 °F 62.8 °F 29.98 in ESE 6.0 mph 12.0 mph 83 % 0.00 in 0 W/m2
20:36 68.2 °F 62.5 °F 29.98 in SE 6.0 mph 12.0 mph 82 % 0.00 in 0 W/m2
20:41 68.0 °F 62.3 °F 29.98 in ESE 5.0 mph 9.0 mph 82 % 0.00 in 0 W/m2
20:46 67.8 °F 62.1 °F 29.98 in ESE 6.0 mph 11.0 mph 82 % 0.00 in 0 W/m2
20:51 67.8 °F 62.1 °F 29.98 in ESE 7.0 mph 12.0 mph 82 % 0.00 in 0 W/m2
20:56 67.8 °F 62.1 °F 29.98 in ESE 6.0 mph 12.0 mph 82 % 0.00 in 0 W/m2
21:01 67.6 °F 62.3 °F 29.98 in ESE 5.0 mph 8.0 mph 83 % 0.00 in 0 W/m2
21:06 67.6 °F 62.3 °F 29.98 in ESE 5.0 mph 9.0 mph 83 % 0.00 in 0 W/m2
21:11 67.6 °F 62.3 °F 29.98 in ESE 5.0 mph 10.0 mph 83 % 0.00 in 0 W/m2
21:16 67.5 °F 62.1 °F 29.98 in ESE 5.0 mph 10.0 mph 83 % 0.00 in 0 W/m2
21:21 67.5 °F 62.1 °F 29.98 in ESE 6.0 mph 11.0 mph 83 % 0.00 in 0 W/m2
21:26 67.3 °F 61.9 °F 29.98 in ESE 6.0 mph 11.0 mph 83 % 0.00 in 0 W/m2
21:31 67.3 °F 61.9 °F 29.98 in ESE 6.0 mph 11.0 mph 83 % 0.00 in 0 W/m2
21:36 67.1 °F 61.8 °F 29.98 in ESE 6.0 mph 11.0 mph 83 % 0.00 in 0 W/m2
21:41 66.9 °F 61.9 °F 29.98 in ESE 5.0 mph 10.0 mph 84 % 0.00 in 0 W/m2
21:43 66.9 °F 61.9 °F 29.98 in ESE 5.0 mph 10.0 mph 84 % 0.00 in 0 W/m2
21:48 66.7 °F 61.7 °F 29.98 in ESE 6.0 mph 10.0 mph 84 % 0.00 in 0 W/m2
21:53 66.7 °F 61.7 °F 29.98 in ESE 6.0 mph 10.0 mph 84 % 0.00 in 0 W/m2
21:58 66.6 °F 61.6 °F 29.98 in ESE 7.0 mph 11.0 mph 84 % 0.00 in 0 W/m2
22:03 66.4 °F 61.7 °F 29.98 in SE 8.0 mph 14.0 mph 85 % 0.00 in 0 W/m2
22:08 66.4 °F 61.7 °F 29.98 in SE 6.0 mph 14.0 mph 85 % 0.00 in 0 W/m2
22:13 66.0 °F 61.4 °F 29.97 in ESE 6.0 mph 11.0 mph 85 % 0.00 in 0 W/m2
22:18 66.0 °F 61.4 °F 29.97 in ESE 6.0 mph 11.0 mph 85 % 0.00 in 0 W/m2
22:23 65.8 °F 61.2 °F 29.97 in ESE 6.0 mph 10.0 mph 85 % 0.00 in 0 W/m2
22:28 65.8 °F 61.5 °F 29.97 in ESE 5.0 mph 9.0 mph 86 % 0.00 in 0 W/m2
22:33 65.8 °F 61.5 °F 29.97 in SE 4.0 mph 9.0 mph 86 % 0.00 in 0 W/m2
22:38 65.7 °F 61.4 °F 29.97 in ESE 4.0 mph 9.0 mph 86 % 0.00 in 0 W/m2
22:43 65.7 °F 61.4 °F 29.97 in ESE 4.0 mph 8.0 mph 86 % 0.00 in 0 W/m2
22:48 65.5 °F 61.2 °F 29.96 in ESE 5.0 mph 9.0 mph 86 % 0.00 in 0 W/m2
22:53 65.5 °F 61.2 °F 29.96 in ESE 6.0 mph 10.0 mph 86 % 0.00 in 0 W/m2
22:58 65.3 °F 61.0 °F 29.96 in ESE 6.0 mph 10.0 mph 86 % 0.00 in 0 W/m2
23:03 65.3 °F 61.0 °F 29.96 in ESE 6.0 mph 11.0 mph 86 % 0.00 in 0 W/m2
23:08 65.1 °F 61.2 °F 29.96 in ESE 6.0 mph 11.0 mph 87 % 0.00 in 0 W/m2
23:13 65.1 °F 61.2 °F 29.96 in ESE 6.0 mph 10.0 mph 87 % 0.00 in 0 W/m2
23:18 64.9 °F 61.0 °F 29.96 in SE 6.0 mph 11.0 mph 87 % 0.00 in 0 W/m2
23:23 64.9 °F 61.3 °F 29.96 in ESE 5.0 mph 11.0 mph 88 % 0.00 in 0 W/m2
23:28 64.8 °F 61.1 °F 29.96 in ESE 5.0 mph 9.0 mph 88 % 0.00 in 0 W/m2
23:33 64.8 °F 61.4 °F 29.96 in SE 4.0 mph 7.0 mph 89 % 0.00 in 0 W/m2
23:38 64.6 °F 61.3 °F 29.95 in SE 3.0 mph 6.0 mph 89 % 0.00 in 0 W/m2
23:43 64.6 °F 61.3 °F 29.95 in SE 3.0 mph 6.0 mph 89 % 0.00 in 0 W/m2
23:48 64.4 °F 61.4 °F 29.95 in SE 4.0 mph 7.0 mph 90 % 0.00 in 0 W/m2
23:53 64.2 °F 61.2 °F 29.95 in SE 4.0 mph 7.0 mph 90 % 0.00 in 0 W/m2
23:58 64.0 °F 61.0 °F 29.95 in SE 4.0 mph 8.0 mph 90 % 0.00 in 0 W/m2
Delerius-Weather
Compliments of Weather Underground - 2.25 mb

Data updates at regular intervals.